Alamo, California
Current Conditions -  °F | °C
As of 8:53 PM on Friday 28 Nov 2014 (Local Time) from KCCR Reporting Station
Overcast Overcast  
Wind Chill: 60°   Ceiling: 4800
Heat Index: 60°   Visibility: 10mi
Dew Point: 49°   Wind: 10mph
Humidity: 67%   Direction: 190°S
Pressure: 29.87"   Gusts: NA
Location:  37.85°N, 122.03°W
Report Text: KCCR 290453Z AUTO 19009KT 10SM OVC048 16/09 A2987 RMK AO2 SLP102 T01560094 TSNO
Loading
Personal Weather Stations






























Interactive Weather Map New forecast layout! Learn more

10-Day Weather Forecast

Advertisements
Track Severe Weather on mobile